createdAt,value
2018-12-23T00:01:49.973Z,9.20
2018-12-23T00:05:53.701Z,9.20
2018-12-23T00:09:57.328Z,9.20
2018-12-23T00:14:00.932Z,9.10
2018-12-23T00:18:04.606Z,9.10
2018-12-23T00:22:08.230Z,9.20
2018-12-23T00:26:11.921Z,9.20
2018-12-23T00:30:15.534Z,9.10
2018-12-23T00:34:19.126Z,9.10
2018-12-23T00:38:22.770Z,9.20
2018-12-23T00:42:26.366Z,9.20
2018-12-23T00:46:29.969Z,9.10
2018-12-23T00:50:33.573Z,9.10
2018-12-23T00:54:37.153Z,9.10
2018-12-23T00:58:40.804Z,9.20
2018-12-23T01:02:44.426Z,9.20
2018-12-23T01:06:48.259Z,9.20
2018-12-23T01:10:51.899Z,9.20
2018-12-23T01:14:55.485Z,9.20
2018-12-23T01:18:59.138Z,9.20
2018-12-23T01:23:02.766Z,9.20
2018-12-23T01:27:06.407Z,9.20
2018-12-23T01:31:10.035Z,9.20
2018-12-23T01:35:13.627Z,9.20
2018-12-23T01:39:17.242Z,9.20
2018-12-23T01:43:20.970Z,9.20
2018-12-23T01:47:24.646Z,9.20
2018-12-23T01:51:28.257Z,9.20
2018-12-23T01:55:31.873Z,9.20
2018-12-23T01:59:35.509Z,9.20
2018-12-23T02:03:39.169Z,9.20
2018-12-23T02:07:42.833Z,9.20
2018-12-23T02:11:46.466Z,9.20
2018-12-23T02:15:50.112Z,9.30
2018-12-23T02:19:53.738Z,9.20
2018-12-23T02:23:57.381Z,9.20
2018-12-23T02:28:00.997Z,9.30
2018-12-23T02:32:04.826Z,9.30
2018-12-23T02:36:08.537Z,9.30
2018-12-23T02:40:12.166Z,9.30
2018-12-23T02:44:15.802Z,9.30
2018-12-23T02:48:19.445Z,9.30
2018-12-23T02:52:23.082Z,9.30
2018-12-23T02:56:26.767Z,9.30
2018-12-23T03:00:30.425Z,9.30
2018-12-23T03:04:34.236Z,9.30
2018-12-23T03:08:37.922Z,9.40
2018-12-23T03:12:41.590Z,9.30
2018-12-23T03:16:45.293Z,9.30
2018-12-23T03:20:48.930Z,9.30
2018-12-23T03:24:52.591Z,9.30
2018-12-23T03:28:56.262Z,9.30
2018-12-23T03:32:59.911Z,9.30
2018-12-23T03:37:03.542Z,9.30
2018-12-23T03:41:07.177Z,9.40
2018-12-23T03:45:10.821Z,9.30
2018-12-23T03:49:14.456Z,9.40
2018-12-23T03:53:18.163Z,9.40
2018-12-23T03:57:21.900Z,9.30
2018-12-23T04:01:25.543Z,9.40
2018-12-23T04:05:29.170Z,9.30
2018-12-23T04:09:32.821Z,9.30
2018-12-23T04:13:36.452Z,9.30
2018-12-23T04:17:40.110Z,9.40
2018-12-23T04:21:43.753Z,9.30
2018-12-23T04:25:47.393Z,9.30
2018-12-23T04:29:51.025Z,9.40
2018-12-23T04:33:54.741Z,9.30
2018-12-23T04:37:58.352Z,9.30
2018-12-23T04:42:01.999Z,9.30
2018-12-23T04:46:05.773Z,9.30
2018-12-23T04:50:09.416Z,9.30
2018-12-23T04:54:13.038Z,9.30
2018-12-23T04:58:16.638Z,9.30
2018-12-23T05:02:20.276Z,9.40
2018-12-23T05:06:23.936Z,9.30
2018-12-23T05:10:27.631Z,9.30
2018-12-23T05:14:31.357Z,9.40
2018-12-23T05:18:35.165Z,9.30
2018-12-23T05:22:38.863Z,9.30
2018-12-23T05:26:42.493Z,9.30
2018-12-23T05:30:46.159Z,9.30
2018-12-23T05:34:49.809Z,9.20
2018-12-23T05:38:53.453Z,9.20
2018-12-23T05:42:57.119Z,9.10
2018-12-23T05:47:00.859Z,9.20
2018-12-23T05:51:04.518Z,9.20
2018-12-23T05:55:08.156Z,9.20
2018-12-23T05:59:11.789Z,9.20
2018-12-23T06:03:15.505Z,9.20
2018-12-23T06:07:19.122Z,9.20
2018-12-23T06:11:22.777Z,9.20
2018-12-23T06:15:26.458Z,9.20
2018-12-23T06:19:30.093Z,9.30
2018-12-23T06:23:33.998Z,9.20
2018-12-23T06:27:37.639Z,9.20
2018-12-23T06:31:41.282Z,9.20
2018-12-23T06:35:44.964Z,9.20
2018-12-23T06:39:48.730Z,9.30
2018-12-23T06:43:52.327Z,9.30
2018-12-23T06:47:55.970Z,9.20
2018-12-23T06:51:59.622Z,9.20
2018-12-23T06:56:03.261Z,9.20
2018-12-23T07:00:07.937Z,9.20
2018-12-23T07:04:11.576Z,9.30
2018-12-23T07:08:15.207Z,9.20
2018-12-23T07:12:18.873Z,9.20
2018-12-23T07:16:22.550Z,9.30
2018-12-23T07:20:26.258Z,9.30
2018-12-23T07:24:29.953Z,9.30
2018-12-23T07:28:33.582Z,9.30
2018-12-23T07:32:37.274Z,9.30
2018-12-23T07:36:49.370Z,9.30
2018-12-23T07:40:46.553Z,9.30
2018-12-23T07:44:50.225Z,9.30
2018-12-23T07:48:53.914Z,9.30
2018-12-23T07:52:57.560Z,9.30
2018-12-23T07:57:01.213Z,9.30
2018-12-23T08:01:04.910Z,9.30
2018-12-23T08:05:08.565Z,9.30
2018-12-23T08:09:12.215Z,9.30
2018-12-23T08:13:15.938Z,9.30
2018-12-23T08:17:19.642Z,9.30
2018-12-23T08:21:23.315Z,9.30
2018-12-23T08:25:35.422Z,9.30
2018-12-23T08:29:32.672Z,9.40
2018-12-23T08:33:36.654Z,9.30
2018-12-23T08:37:44.594Z,9.30
2018-12-23T08:41:46.050Z,9.30
2018-12-23T08:45:50.150Z,9.30
2018-12-23T08:49:53.973Z,9.40
2018-12-23T08:54:35.352Z,9.30
2018-12-23T08:58:40.367Z,9.40
2018-12-23T09:02:45.387Z,9.40
2018-12-23T09:06:50.359Z,9.40
2018-12-23T09:10:55.384Z,9.40
2018-12-23T09:15:00.530Z,9.40
2018-12-23T09:19:05.528Z,9.40
2018-12-23T09:23:10.528Z,9.50
2018-12-23T09:27:15.511Z,9.50
2018-12-23T09:31:20.491Z,9.50
2018-12-23T09:35:25.504Z,9.50
2018-12-23T09:39:30.518Z,9.50
2018-12-23T09:43:35.530Z,9.60
2018-12-23T09:47:40.653Z,9.60
2018-12-23T09:51:45.645Z,9.60
2018-12-23T09:55:50.656Z,9.60
2018-12-23T09:59:55.672Z,9.60
2018-12-23T10:04:00.682Z,9.60
2018-12-23T10:08:09.950Z,9.60
2018-12-23T10:12:12.346Z,9.60
2018-12-23T10:16:17.374Z,9.60
2018-12-23T10:20:22.375Z,9.70
2018-12-23T10:24:27.395Z,9.70
2018-12-23T10:28:32.407Z,9.70
2018-12-23T10:32:37.391Z,9.70
2018-12-23T10:36:42.478Z,9.80
2018-12-23T10:40:47.504Z,9.80
2018-12-23T10:44:52.559Z,9.70
2018-12-23T10:48:57.560Z,9.70
2018-12-23T10:53:02.561Z,9.70
2018-12-23T10:57:07.525Z,9.80
2018-12-23T11:01:15.011Z,9.80
2018-12-23T11:05:20.013Z,9.70
2018-12-23T11:09:25.001Z,9.80
2018-12-23T11:13:30.063Z,9.80
2018-12-23T11:17:35.500Z,9.80
2018-12-23T11:21:40.500Z,9.90
2018-12-23T11:25:45.564Z,9.90
2018-12-23T11:29:50.647Z,9.90
2018-12-23T11:33:55.655Z,9.80
2018-12-23T11:38:00.636Z,9.90
2018-12-23T11:42:05.621Z,9.90
2018-12-23T11:46:10.633Z,9.90
2018-12-23T11:50:15.632Z,9.80
2018-12-23T11:54:20.611Z,9.90
2018-12-23T11:58:25.572Z,9.90
2018-12-23T12:02:30.551Z,9.90
2018-12-23T12:06:35.546Z,9.80
2018-12-23T12:10:40.565Z,9.90
2018-12-23T12:14:45.578Z,9.90
2018-12-23T12:18:50.640Z,9.90
2018-12-23T12:22:55.612Z,9.90
2018-12-23T12:27:00.619Z,9.90
2018-12-23T12:31:05.654Z,10.00
2018-12-23T12:35:10.715Z,10.00
2018-12-23T12:39:15.784Z,10.00
2018-12-23T12:43:20.795Z,10.00
2018-12-23T12:47:25.849Z,10.00
2018-12-23T12:51:30.926Z,10.00
2018-12-23T12:55:35.934Z,9.90
2018-12-23T12:59:40.947Z,10.00
2018-12-23T13:03:46.007Z,10.00
2018-12-23T13:07:50.995Z,10.00
2018-12-23T13:11:56.000Z,10.00
2018-12-23T13:16:00.983Z,9.90
2018-12-23T13:20:06.793Z,10.00
2018-12-23T13:24:11.798Z,9.90
2018-12-23T13:28:16.804Z,9.90
2018-12-23T13:32:21.820Z,9.90
2018-12-23T13:36:26.820Z,9.90
2018-12-23T13:41:00.695Z,10.00
2018-12-23T13:45:51.138Z,9.90
2018-12-23T13:50:49.227Z,9.90
2018-12-23T13:55:56.359Z,9.90
2018-12-23T14:00:36.907Z,9.90
2018-12-23T14:05:28.592Z,9.90
2018-12-23T14:10:16.565Z,9.90
2018-12-23T14:14:21.551Z,9.90
2018-12-23T14:18:26.652Z,9.90
2018-12-23T14:22:31.626Z,9.90
2018-12-23T14:26:36.623Z,9.90
2018-12-23T14:30:41.707Z,9.90
2018-12-23T14:34:46.847Z,9.90
2018-12-23T14:38:51.896Z,9.90
2018-12-23T14:42:57.708Z,9.90
2018-12-23T14:47:02.710Z,9.90
2018-12-23T14:51:10.502Z,9.90
2018-12-23T14:55:15.492Z,9.90
2018-12-23T14:59:20.509Z,9.80
2018-12-23T15:03:25.563Z,9.90
2018-12-23T15:07:30.561Z,9.80
2018-12-23T15:11:35.557Z,9.80
2018-12-23T15:15:40.689Z,9.80
2018-12-23T15:19:45.784Z,9.90
2018-12-23T15:23:50.802Z,9.80
2018-12-23T15:27:55.785Z,9.80
2018-12-23T15:32:00.798Z,9.80
2018-12-23T15:36:05.773Z,9.80
2018-12-23T15:40:10.759Z,9.80
2018-12-23T15:44:15.761Z,9.70
2018-12-23T15:48:20.739Z,9.70
2018-12-23T15:52:25.723Z,9.70
2018-12-23T15:56:30.679Z,9.70
2018-12-23T16:00:35.665Z,9.70
2018-12-23T16:04:40.680Z,9.70
2018-12-23T16:08:45.674Z,9.60
2018-12-23T16:12:50.657Z,9.60
2018-12-23T16:16:55.643Z,9.60
2018-12-23T16:21:00.639Z,9.60
2018-12-23T16:25:05.811Z,9.60
2018-12-23T16:29:10.808Z,9.50
2018-12-23T16:33:15.893Z,9.50
2018-12-23T16:37:20.875Z,9.50
2018-12-23T16:41:25.867Z,9.50
2018-12-23T16:45:30.865Z,9.50
2018-12-23T16:49:35.847Z,9.50
2018-12-23T16:53:40.865Z,9.50
2018-12-23T16:57:45.840Z,9.40
2018-12-23T17:01:50.836Z,9.40
2018-12-23T17:05:55.851Z,9.40
2018-12-23T17:10:07.867Z,9.40
2018-12-23T17:14:07.491Z,9.40
2018-12-23T17:18:12.467Z,9.40
2018-12-23T17:22:17.465Z,9.40
2018-12-23T17:26:22.475Z,9.40
2018-12-23T17:30:27.478Z,9.40
2018-12-23T17:34:32.499Z,9.40
2018-12-23T17:38:37.612Z,9.40
2018-12-23T17:42:42.709Z,9.40
2018-12-23T17:46:47.823Z,9.30
2018-12-23T17:50:53.022Z,9.30
2018-12-23T17:54:58.130Z,9.30
2018-12-23T17:59:03.305Z,9.30
2018-12-23T18:03:08.344Z,9.30
2018-12-23T18:07:13.519Z,9.20
2018-12-23T18:11:18.731Z,9.30
2018-12-23T18:15:23.884Z,9.20
2018-12-23T18:19:28.948Z,9.20
2018-12-23T18:23:33.958Z,9.20
2018-12-23T18:27:39.081Z,9.20
2018-12-23T18:31:44.291Z,9.20
2018-12-23T18:35:49.433Z,9.20
2018-12-23T18:39:54.564Z,9.20
2018-12-23T18:43:59.662Z,9.20
2018-12-23T18:48:04.770Z,9.20
2018-12-23T18:52:09.990Z,9.20
2018-12-23T18:56:15.130Z,9.20
2018-12-23T19:00:20.347Z,9.20
2018-12-23T19:04:25.387Z,9.20
2018-12-23T19:09:08.380Z,9.10
2018-12-23T19:13:43.062Z,9.10
2018-12-23T19:18:27.171Z,9.10
2018-12-23T19:23:08.857Z,9.10
2018-12-23T19:27:40.058Z,9.10
2018-12-23T19:32:28.971Z,9.10
2018-12-23T19:37:25.804Z,9.00
2018-12-23T19:42:21.062Z,9.00
2018-12-23T19:47:05.500Z,9.00
2018-12-23T19:51:59.763Z,8.90
2018-12-23T19:56:44.636Z,8.90
2018-12-23T20:01:18.281Z,8.90
2018-12-23T20:06:14.083Z,8.80
2018-12-23T20:11:01.249Z,8.80
2018-12-23T20:15:46.164Z,8.80
2018-12-23T20:20:24.257Z,8.70
2018-12-23T20:25:01.069Z,8.70
2018-12-23T20:29:30.163Z,8.70
2018-12-23T20:34:33.057Z,8.70
2018-12-23T20:39:16.660Z,8.70
2018-12-23T20:43:50.371Z,8.70
2018-12-23T20:48:45.328Z,8.70
2018-12-23T20:53:18.570Z,8.70
2018-12-23T20:57:53.749Z,8.60
2018-12-23T21:02:26.071Z,8.60
2018-12-23T21:07:09.195Z,8.60
2018-12-23T21:11:50.636Z,8.10
2018-12-23T21:16:48.926Z,8.30
2018-12-23T21:21:46.126Z,8.40
2018-12-23T21:26:30.963Z,8.40
2018-12-23T21:31:27.208Z,8.40
2018-12-23T21:35:53.403Z,8.40
2018-12-23T21:40:58.868Z,8.40
2018-12-23T21:45:43.412Z,8.40
2018-12-23T21:50:35.103Z,8.40
2018-12-23T21:55:19.186Z,8.30
2018-12-23T21:59:58.426Z,8.30
2018-12-23T22:04:33.080Z,8.30
2018-12-23T22:09:14.152Z,8.30
2018-12-23T22:13:28.725Z,8.30
2018-12-23T22:17:33.771Z,8.30
2018-12-23T22:21:38.760Z,8.30
2018-12-23T22:25:43.735Z,8.20
2018-12-23T22:29:48.676Z,8.20
2018-12-23T22:33:53.666Z,8.30
2018-12-23T22:37:58.644Z,8.20
2018-12-23T22:42:03.618Z,8.20
2018-12-23T22:46:08.595Z,8.20
2018-12-23T22:50:13.526Z,8.20
2018-12-23T22:54:18.512Z,8.20
2018-12-23T22:58:23.501Z,8.20
2018-12-23T23:02:28.491Z,8.20
2018-12-23T23:06:33.505Z,8.20
2018-12-23T23:10:38.476Z,8.20
2018-12-23T23:14:43.585Z,8.10
2018-12-23T23:18:48.619Z,8.10
2018-12-23T23:22:53.605Z,8.10
2018-12-23T23:26:58.575Z,8.10
2018-12-23T23:31:03.544Z,8.10
2018-12-23T23:35:08.520Z,8.00
2018-12-23T23:39:13.526Z,8.00
2018-12-23T23:43:20.703Z,8.00
2018-12-23T23:47:25.168Z,7.90
2018-12-23T23:51:30.127Z,7.90
2018-12-23T23:55:35.104Z,7.50
2018-12-23T23:59:40.065Z,7.30
